Latest Coastal Weather Observations for Port Augusta

IDS60701

Issued at 8:41 pm CST Sunday 24 May 2015 (issued every 10 minutes, with the page automatically refreshed every 10 minutes)

About coastal observations | Map of coastal stations | Coastal observations for SA | Marine services | Other Formats
Station Details ID: 018201 Name: PORT AUGUSTA AERO Lat: -32.51 Lon: 137.72 Height: 13.97 m
Data from the previous 72 hours. | See also: Recent months at Port Augusta
Date/Time
CST
Temp

°C
Wind Pressure Rain
since 9am
mm
Weather Cloud Vis
km
Sea
Height
m
Swell
Dir
 
Speed
knots
Gust
knots
hPa Trend Height
m
Period
s
Dir
24/08:30pm 14.4 SE 7 11 1027.7 - 0.0 - - 10 - - - -
24/08:00pm 13.7 SSE 7 9 1027.4 - 0.0 - - 10 - - - -
24/07:30pm 13.5 SE 5 6 1027.4 - 0.0 - - 10 - - - -
24/07:00pm 13.9 ESE 5 7 1027.3 - 0.0 - - 10 - - - -
24/06:30pm 13.9 E 4 6 1027.5 - 0.0 - - 10 - - - -
24/06:00pm 14.2 E 7 8 1027.0 - 0.0 - - 10 - - - -
24/05:30pm 15.5 SE 4 5 1027.2 - 0.0 - - 10 - - - -
24/05:00pm 16.3 SE 2 4 1027.2 - 0.0 - - 10 - - - -
24/04:30pm 16.8 SSE 3 4 1027.2 - 0.0 - - 10 - - - -
24/04:00pm 17.0 SSE 4 5 1027.3 - 0.0 - - 10 - - - -
24/03:30pm 17.3 WSW 3 4 1027.3 - 0.0 - - 10 - - - -
24/03:00pm 16.9 W 3 4 1027.3 - 0.0 - - 10 - - - -
24/02:30pm 17.0 WNW 5 6 1027.3 - 0.0 - - 10 - - - -
24/02:00pm 16.5 NNW 4 5 1027.0 - 0.0 - Partly cloudy 10 - - - -
24/01:30pm 16.9 NNW 4 6 1027.3 - 0.0 - - 10 - - - -
24/01:00pm 17.1 NNW 3 5 1027.4 - 0.0 - - 10 - - - -
24/12:30pm 17.0 NW 5 7 1027.9 - 0.0 - - 10 - - - -
24/12:00pm 16.7 NNW 6 8 1028.3 - 0.0 - - 10 - - - -
24/11:30am 16.8 NW 5 7 1028.7 - 0.0 - - 10 - - - -
24/11:00am 16.3 SSE 1 3 1028.8 - 0.0 - - 10 - - - -
24/10:30am 15.3 SE 3 4 1028.8 - 0.0 - - 10 - - - -
24/10:00am 15.3 SE 5 7 1028.6 - 0.0 - - 10 - - - -
24/09:30am 13.9 SE 8 9 1028.6 - 0.0 - - 10 - - - -
24/09:00am 12.9 SE 6 9 1028.5 - 0.2 - - 10 - - - -
24/08:30am 12.2 SE 8 9 1028.2 - 0.2 - - 10 - - - -
24/08:00am 11.4 SE 7 9 1028.0 - 0.2 - - 10 - - - -
24/07:30am 10.1 SE 7 9 1027.9 - 0.2 - - 10 - - - -
24/07:00am 10.0 ESE 6 8 1027.7 - 0.2 - - 10 - - - -
24/06:30am 9.3 SE 5 6 1027.5 - 0.2 - - 10 - - - -
24/06:00am 8.8 ESE 7 8 1027.0 - 0.2 - - 10 - - - -
24/05:30am 9.2 SE 6 7 1027.1 - 0.2 - - 10 - - - -
24/05:00am 7.7 E 3 7 1027.0 - 0.2 - - 10 - - - -
24/04:30am 8.0 ESE 4 6 1026.9 - 0.2 - - 10 - - - -
24/04:00am 8.4 CALM 0 0 1027.0 - 0.2 - - 10 - - - -
24/03:30am 10.9 E 5 6 1026.9 - 0.2 - - 10 - - - -
24/03:00am 11.0 E 7 9 1026.8 - 0.2 - - 10 - - - -
24/02:30am 11.5 ESE 9 9 1027.1 - 0.2 - - 10 - - - -
24/02:00am 12.4 ESE 5 7 1027.3 - 0.2 - - 10 - - - -
24/01:30am 12.2 E 6 8 1027.2 - 0.2 - - 10 - - - -
24/01:00am 12.0 ESE 6 7 1027.2 - 0.2 - - 10 - - - -
24/12:30am 12.0 ESE 6 8 1027.3 - 0.2 - - 10 - - - -
24/12:00am 11.5 ESE 8 10 1027.5 - 0.2 - - 10 - - - -
 
Date/Time
CST
Temp

°C
Wind Pressure Rain
since 9am
mm
Weather Cloud Vis
km
Sea
Height
m
Swell
Dir
 
Speed
knots
Gust
knots
hPa Trend Height
m
Period
s
Dir
23/11:30pm 11.5 SE 7 9 1027.7 - 0.2 - - 10 - - - -
23/11:00pm 11.8 SE 6 8 1027.7 - 0.2 - - 10 - - - -
23/10:30pm 12.1 SE 7 9 1027.7 - 0.2 - - 10 - - - -
23/10:00pm 12.4 SE 7 9 1027.8 - 0.2 - - 10 - - - -
23/09:30pm 12.5 SE 7 9 1028.0 - 0.2 - - 10 - - - -
23/09:00pm 12.9 SE 7 9 1027.9 - 0.2 - - 10 - - - -
23/08:30pm 12.5 SE 6 8 1028.1 - 0.2 - - 10 - - - -
23/08:00pm 13.0 SE 7 8 1027.9 - 0.2 - - 10 - - - -
23/07:30pm 14.0 SE 8 9 1027.9 - 0.2 - - 10 - - - -
23/07:00pm 13.7 SSE 9 11 1027.7 - 0.2 - - 10 - - - -
23/06:30pm 13.9 SE 8 11 1027.4 - 0.2 - - 10 - - - -
23/06:00pm 14.4 SSE 7 8 1027.4 - 0.2 - - 10 - - - -
23/05:30pm 15.8 SSE 6 7 1027.4 - 0.2 - - 10 - - - -
23/05:00pm 16.9 SE 5 6 1027.6 - 0.2 - - 10 - - - -
23/04:30pm 17.0 ESE 5 6 1027.7 - 0.2 - - 10 - - - -
23/04:00pm 17.6 E 5 6 1027.8 - 0.2 - - 10 - - - -
23/03:30pm 19.0 NE 3 5 1027.7 - 0.2 - - 10 - - - -
23/03:00pm 18.8 NNE 6 9 1027.7 - 0.2 - - 10 - - - -
23/02:30pm 18.6 N 5 8 1027.9 - 0.2 - - 10 - - - -
23/02:00pm 18.8 NNW 5 7 1028.0 - 0.2 - - 10 - - - -
23/01:30pm 18.8 N 6 9 1028.4 - 0.2 - - 10 - - - -
23/01:00pm 18.0 NW 5 9 1028.9 - 0.2 - - 10 - - - -
23/12:30pm 18.1 ENE 5 9 1029.2 - 0.2 - - 10 - - - -
23/12:00pm 17.9 NE 6 9 1029.7 - 0.2 - - 10 - - - -
23/11:30am 17.3 NNE 4 7 1030.4 - 0.0 - - 10 - - - -
23/11:00am 16.5 NE 4 6 1030.7 - 0.0 - - 10 - - - -
23/10:30am 15.8 E 6 10 1030.9 - 0.0 - - 10 - - - -
23/10:00am 15.0 E 6 8 1031.3 - 0.0 - - 10 - - - -
23/09:30am 13.4 E 8 10 1031.4 - 0.0 - - 10 - - - -
23/09:00am 9.7 ESE 1 4 1031.3 - 0.0 - - 10 - - - -
23/08:30am 9.0 CALM 0 0 1031.3 - 0.0 - - 10 - - - -
23/08:00am 9.6 E 3 5 1031.1 - 0.0 - - 10 - - - -
23/07:30am 6.8 ESE 3 5 1030.8 - 0.0 - - 10 - - - -
23/07:00am 4.8 S 3 4 1030.5 - 0.0 - - 10 - - - -
23/06:30am 5.2 WSW 2 3 1030.4 - 0.0 - - 10 - - - -
23/06:00am 7.0 CALM 0 0 1030.1 - 0.0 - - 10 - - - -
23/05:30am 5.7 W 3 4 1030.2 - 0.0 - - 10 - - - -
23/05:00am 6.0 SW 3 5 1029.9 - 0.0 - - 10 - - - -
23/04:30am 5.7 WSW 5 6 1030.0 - 0.0 - - 10 - - - -
23/04:00am 5.5 W 5 6 1030.0 - 0.0 - - 10 - - - -
23/03:30am 5.8 WSW 4 5 1030.1 - 0.0 - - 10 - - - -
23/03:00am 7.2 ESE 1 4 1030.0 - 0.0 - - 10 - - - -
23/02:30am 7.9 CALM 0 0 1030.2 - 0.0 - - 10 - - - -
23/02:00am 8.7 SSE 5 7 1030.3 - 0.0 - - 10 - - - -
23/01:30am 7.2 S 5 6 1030.4 - 0.0 - - 10 - - - -
23/01:00am 7.2 SSW 3 5 1030.4 - 0.0 - - 10 - - - -
23/12:30am 7.3 WSW 4 5 1030.6 - 0.0 - - 10 - - - -
23/12:00am 7.3 W 4 5 1030.4 - 0.0 - - 10 - - - -
 
Date/Time
CST
Temp

°C
Wind Pressure Rain
since 9am
mm
Weather Cloud Vis
km
Sea
Height
m
Swell
Dir
 
Speed
knots
Gust
knots
hPa Trend Height
m
Period
s
Dir
22/11:30pm 8.1 SSW 7 8 1030.4 - 0.0 - - 10 - - - -
22/11:00pm 9.3 WNW 2 3 1030.5 - 0.0 - - 10 - - - -
22/10:30pm 10.6 SE 4 5 1030.5 - 0.0 - - 10 - - - -
22/10:00pm 11.0 SE 4 7 1030.4 - 0.0 - - 10 - - - -
22/09:30pm 11.8 ESE 7 9 1030.4 - 0.0 - - 10 - - - -
22/09:00pm 12.3 SE 8 12 1030.0 - 0.0 - - 10 - - - -
22/08:30pm 12.3 SE 8 11 1030.3 - 0.0 - - 10 - - - -
22/08:00pm 11.5 SE 6 7 1030.3 - 0.0 - - 10 - - - -
22/07:30pm 12.8 SE 7 9 1030.2 - 0.0 - Partly cloudy 10 - - - -
22/07:00pm 13.4 SSE 14 17 1030.1 - 0.0 - Cloudy 10 - - - -
22/06:30pm 13.0 S 12 16 1029.9 - 0.0 - Partly cloudy 10 - - - -
22/06:00pm 13.3 SSE 12 15 1029.6 - 0.0 - - 10 - - - -
22/05:30pm 13.5 SSE 9 12 1029.7 - 0.0 - - 10 - - - -
22/05:00pm 14.4 SSE 12 14 1029.7 - 0.0 - - 10 - - - -
22/04:30pm 15.2 SSE 12 15 1029.7 - 0.0 - - 10 - - - -
22/04:00pm 15.3 SSE 13 16 1029.6 - 0.0 - - 10 - - - -
22/03:30pm 15.7 SSE 13 16 1029.5 - 0.0 - - 10 - - - -
22/03:00pm 15.8 SSE 13 17 1029.4 - 0.0 - - 10 - - - -
22/02:30pm 16.1 SSE 12 16 1029.5 - 0.0 - - 10 - - - -
22/02:00pm 15.9 SSE 12 15 1029.8 - 0.0 - - 10 - - - -
22/01:30pm 15.5 SSE 11 16 1030.0 - 0.0 - - 10 - - - -
22/01:00pm 15.5 SSE 12 16 1030.2 - 0.0 - - 10 - - - -
22/12:30pm 15.4 SE 12 16 1030.6 - 0.0 - - 10 - - - -
22/12:00pm 15.1 SSE 11 15 1030.9 - 0.0 - - 10 - - - -
22/11:30am 14.7 SSE 14 17 1031.4 - 0.0 - - 10 - - - -
22/11:00am 14.3 SSE 13 17 1031.8 - 0.0 - Partly cloudy 10 - - - -
22/10:30am 13.7 SSE 11 15 1031.9 - 0.0 - Partly cloudy 10 - - - -
22/10:18am 13.3 SE 11 16 1032.0 - 0.0 - Partly cloudy 10 - - - -
22/10:00am 13.6 SE 10 13 1032.0 - 0.0 - Partly cloudy 10 - - - -
22/09:45am 13.4 SE 7 12 1032.1 - 0.0 - Partly cloudy 10 - - - -
22/09:30am 13.0 SE 7 10 1032.1 - 0.0 - Partly cloudy 10 - - - -
22/09:00am 11.9 SSE 7 9 1031.9 - 4.8 - - 10 - - - -
22/08:30am 10.5 WSW 5 6 1031.6 - 4.8 - - 10 - - - -
22/08:00am 8.4 CALM 0 0 1031.3 - 4.8 - - 10 - - - -
22/07:30am 6.9 S 3 4 1030.9 - 4.8 - - 10 - - - -
22/07:00am 7.7 S 5 8 1030.4 - 4.8 - - 10 - - - -
22/06:30am 8.3 S 9 10 1030.0 - 4.8 - - 10 - - - -
22/06:00am 7.1 S 8 9 1029.5 - 4.8 - - 10 - - - -
22/05:30am 6.1 SSW 7 8 1029.5 - 4.8 - - 10 - - - -
22/05:00am 6.2 SSW 6 6 1029.2 - 4.8 - - 10 - - - -
22/04:30am 6.8 SSW 6 7 1029.2 - 4.8 - - 10 - - - -
22/04:00am 7.5 SSW 7 9 1029.0 - 4.6 - - 10 - - - -
22/03:30am 7.9 SSW 8 9 1029.2 - 4.6 - Partly cloudy 10 - - - -
22/03:00am 8.0 SSW 7 8 1029.2 - 4.6 - Mostly clear 10 - - - -
22/02:30am 7.4 SSW 6 7 1029.5 - 4.6 - Partly cloudy 10 - - - -
22/02:00am 7.7 SW 8 9 1029.8 - 4.6 - - 10 - - - -
22/01:30am 7.8 SSW 8 8 1029.8 - 4.6 - - 10 - - - -
22/01:00am 8.3 SSW 8 8 1030.0 - 4.6 - Partly cloudy 10 - - - -
22/12:30am 9.1 SSW 7 9 1030.1 - 4.6 - Partly cloudy 10 - - - -
22/12:00am 8.8 SSW 6 8 1030.0 - 4.6 - - 10 - - - -
 
Date/Time
CST
Temp

°C
Wind Pressure Rain
since 9am
mm
Weather Cloud Vis
km
Sea
Height
m
Swell
Dir
 
Speed
knots
Gust
knots
hPa Trend Height
m
Period
s
Dir
21/11:30pm 10.3 SSW 8 10 1030.1 - 4.6 - Partly cloudy 10 - - - -
21/11:00pm 10.8 SSW 8 10 1030.0 - 4.6 - Partly cloudy 10 - - - -
21/10:30pm 11.4 SSW 9 13 1030.0 - 4.6 - Partly cloudy 10 - - - -
21/10:00pm 9.9 SSW 8 10 1030.0 - 4.6 - Partly cloudy 10 - - - -
21/09:30pm 10.7 S 9 10 1029.9 - 4.6 - Partly cloudy 10 - - - -
21/09:00pm 11.7 SSW 7 9 1029.9 - 4.6 - Mostly cloudy 10 - - - -

Other Formats:

Comma delimited format used in spreadsheet applications
http://www.bom.gov.au/fwo/IDS60701/IDS60701.95666.axf

JavaScript Object Notation format (JSON) in row-major order
http://www.bom.gov.au/fwo/IDS60701/IDS60701.95666.json